createdAt,value
2019-03-24T00:00:02.690Z,34.92
2019-03-24T00:00:41.632Z,47.60
2019-03-24T00:01:23.750Z,44.27
2019-03-24T00:01:59.693Z,38.50
2019-03-24T00:02:34.247Z,34.65
2019-03-24T00:03:08.849Z,32.35
2019-03-24T00:03:43.754Z,35.48
2019-03-24T00:04:18.263Z,30.97
2019-03-24T00:04:52.769Z,32.42
2019-03-24T00:05:27.280Z,31.50
2019-03-24T00:06:01.865Z,32.15
2019-03-24T00:06:36.501Z,28.85
2019-03-24T00:07:11.076Z,30.15
2019-03-24T00:07:45.585Z,30.48
2019-03-24T00:08:20.102Z,30.15
2019-03-24T00:08:54.783Z,33.55
2019-03-24T00:09:29.550Z,33.45
2019-03-24T00:10:06.470Z,33.10
2019-03-24T00:10:41.057Z,33.00
2019-03-24T00:11:15.596Z,29.07
2019-03-24T00:11:50.205Z,30.82
2019-03-24T00:12:24.705Z,30.57
2019-03-24T00:12:59.282Z,30.60
2019-03-24T00:13:33.789Z,30.27
2019-03-24T00:14:08.383Z,29.52
2019-03-24T00:14:43.393Z,32.80
2019-03-24T00:15:25.704Z,32.73
2019-03-24T00:15:54.207Z,28.87
2019-03-24T00:16:28.791Z,28.90
2019-03-24T00:17:03.313Z,29.00
2019-03-24T00:17:37.831Z,27.42
2019-03-24T00:18:12.347Z,28.65
2019-03-24T00:18:46.933Z,33.50
2019-03-24T00:19:21.568Z,30.27
2019-03-24T00:19:56.082Z,31.93
2019-03-24T00:20:30.672Z,31.73
2019-03-24T00:21:11.175Z,31.75
2019-03-24T00:21:45.828Z,28.85
2019-03-24T00:22:20.350Z,32.35
2019-03-24T00:22:54.928Z,31.57
2019-03-24T00:23:29.440Z,30.68
2019-03-24T00:24:05.003Z,27.95
2019-03-24T00:24:39.982Z,26.02
2019-03-24T00:25:14.559Z,27.58
2019-03-24T00:25:49.090Z,28.80
2019-03-24T00:26:23.610Z,31.60
2019-03-24T00:26:58.386Z,30.27
2019-03-24T00:27:32.898Z,27.25
2019-03-24T00:28:07.415Z,27.27
2019-03-24T00:28:41.928Z,28.55
2019-03-24T00:29:16.573Z,24.98
2019-03-24T00:29:54.173Z,29.50
2019-03-24T00:30:29.054Z,27.05
2019-03-24T00:31:03.565Z,27.70
2019-03-24T00:31:38.206Z,31.10
2019-03-24T00:32:12.786Z,28.42
2019-03-24T00:32:47.317Z,28.57
2019-03-24T00:33:21.840Z,27.05
2019-03-24T00:33:56.361Z,29.05
2019-03-24T00:34:30.890Z,33.85
2019-03-24T00:35:07.316Z,31.23
2019-03-24T00:35:41.816Z,30.20
2019-03-24T00:36:16.332Z,29.30
2019-03-24T00:36:50.849Z,32.03
2019-03-24T00:37:25.414Z,27.20
2019-03-24T00:38:00.073Z,27.32
2019-03-24T00:38:34.579Z,29.00
2019-03-24T00:39:09.082Z,28.07
2019-03-24T00:39:43.593Z,32.08
2019-03-24T00:40:18.784Z,29.98
2019-03-24T00:40:54.253Z,31.77
2019-03-24T00:41:28.759Z,28.77
2019-03-24T00:42:03.347Z,25.88
2019-03-24T00:42:37.897Z,29.20
2019-03-24T00:43:12.476Z,30.92
2019-03-24T00:43:47.109Z,27.70
2019-03-24T00:44:21.612Z,30.23
2019-03-24T00:44:56.129Z,23.47
2019-03-24T00:45:36.750Z,29.85
2019-03-24T00:46:06.927Z,27.15
2019-03-24T00:46:41.435Z,30.60
2019-03-24T00:47:15.934Z,27.20
2019-03-24T00:47:50.816Z,25.30
2019-03-24T00:48:25.400Z,29.23
2019-03-24T00:48:59.919Z,28.25
2019-03-24T00:49:34.409Z,29.48
2019-03-24T00:50:09.153Z,27.87
2019-03-24T00:50:43.671Z,26.73
2019-03-24T00:51:18.308Z,27.02
2019-03-24T00:51:52.917Z,32.33
2019-03-24T00:52:27.475Z,27.93
2019-03-24T00:53:02.058Z,24.90
2019-03-24T00:53:36.650Z,26.25
2019-03-24T00:54:11.184Z,29.32
2019-03-24T00:54:45.685Z,26.90
2019-03-24T00:55:20.250Z,27.90
2019-03-24T00:55:54.769Z,41.73
2019-03-24T00:56:29.302Z,32.17
2019-03-24T00:57:03.869Z,29.50
2019-03-24T00:57:38.374Z,27.67
2019-03-24T00:58:12.876Z,24.80
2019-03-24T00:58:47.387Z,26.95
2019-03-24T00:59:21.904Z,31.07
2019-03-24T00:59:56.480Z,25.88
2019-03-24T01:00:41.958Z,22.73
2019-03-24T01:01:16.643Z,27.32
2019-03-24T01:01:51.137Z,25.65
2019-03-24T01:02:25.729Z,26.48
2019-03-24T01:03:00.232Z,29.02
2019-03-24T01:03:34.732Z,26.77
2019-03-24T01:04:09.234Z,28.98
2019-03-24T01:04:43.808Z,28.45
2019-03-24T01:05:18.501Z,24.25
2019-03-24T01:05:53.002Z,24.90
2019-03-24T01:06:27.565Z,27.95
2019-03-24T01:07:02.059Z,31.97
2019-03-24T01:07:36.563Z,30.97
2019-03-24T01:08:11.059Z,30.57
2019-03-24T01:08:45.636Z,25.62
2019-03-24T01:09:20.243Z,35.83
2019-03-24T01:09:54.749Z,27.25
2019-03-24T01:10:29.469Z,25.97
2019-03-24T01:11:04.409Z,28.05
2019-03-24T01:11:38.916Z,26.55
2019-03-24T01:12:13.505Z,26.15
2019-03-24T01:12:48.006Z,26.68
2019-03-24T01:13:22.517Z,27.70
2019-03-24T01:13:57.028Z,22.75
2019-03-24T01:14:31.550Z,27.50
2019-03-24T01:15:07.949Z,26.65
2019-03-24T01:15:47.652Z,31.17
2019-03-24T01:16:18.994Z,26.95
2019-03-24T01:16:53.529Z,26.50
2019-03-24T01:17:28.025Z,37.78
2019-03-24T01:18:02.527Z,26.77
2019-03-24T01:18:37.376Z,28.32
2019-03-24T01:19:11.904Z,25.95
2019-03-24T01:19:46.482Z,26.10
2019-03-24T01:20:21.127Z,27.35
2019-03-24T01:20:55.693Z,27.10
2019-03-24T01:21:30.202Z,24.90
2019-03-24T01:22:05.185Z,24.70
2019-03-24T01:22:39.795Z,29.23
2019-03-24T01:23:14.388Z,26.60
2019-03-24T01:23:48.891Z,25.70
2019-03-24T01:24:23.410Z,27.80
2019-03-24T01:24:57.973Z,30.12
2019-03-24T01:25:32.482Z,25.20
2019-03-24T01:26:07.051Z,26.75
2019-03-24T01:26:41.642Z,25.45
2019-03-24T01:27:16.149Z,26.10
2019-03-24T01:27:50.701Z,28.55
2019-03-24T01:28:25.242Z,23.67
2019-03-24T01:28:59.760Z,22.37
2019-03-24T01:29:34.266Z,30.80
2019-03-24T01:30:09.221Z,30.35
2019-03-24T01:30:43.864Z,24.55
2019-03-24T01:31:18.384Z,25.12
2019-03-24T01:31:52.956Z,21.87
2019-03-24T01:32:27.455Z,27.60
2019-03-24T01:33:01.974Z,27.65
2019-03-24T01:33:36.595Z,24.85
2019-03-24T01:34:11.161Z,26.82
2019-03-24T01:34:45.662Z,27.02
2019-03-24T01:35:20.265Z,24.45
2019-03-24T01:35:54.849Z,26.17
2019-03-24T01:36:29.355Z,23.57
2019-03-24T01:37:04.060Z,26.37
2019-03-24T01:37:38.577Z,24.90
2019-03-24T01:38:14.047Z,22.42
2019-03-24T01:38:48.573Z,24.70
2019-03-24T01:39:23.131Z,28.10
2019-03-24T01:39:57.702Z,23.25
2019-03-24T01:40:32.307Z,28.80
2019-03-24T01:41:08.060Z,23.75
2019-03-24T01:41:43.180Z,25.97
2019-03-24T01:42:17.694Z,23.98
2019-03-24T01:42:52.249Z,24.45
2019-03-24T01:43:26.840Z,25.70
2019-03-24T01:44:01.413Z,28.17
2019-03-24T01:44:35.917Z,27.13
2019-03-24T01:45:11.471Z,24.87
2019-03-24T01:45:45.998Z,26.68
2019-03-24T01:46:20.624Z,24.02
2019-03-24T01:46:55.197Z,27.95
2019-03-24T01:47:29.706Z,22.82
2019-03-24T01:48:04.423Z,24.10
2019-03-24T01:48:38.946Z,23.47
2019-03-24T01:49:13.456Z,25.25
2019-03-24T01:49:48.080Z,23.57
2019-03-24T01:50:22.602Z,24.45
2019-03-24T01:50:57.171Z,23.87
2019-03-24T01:51:31.696Z,22.75
2019-03-24T01:52:06.201Z,22.75
2019-03-24T01:52:41.009Z,26.68
2019-03-24T01:53:15.512Z,25.77
2019-03-24T01:53:50.108Z,24.18
2019-03-24T01:54:24.664Z,30.43
2019-03-24T01:54:59.244Z,28.77
2019-03-24T01:55:33.768Z,22.82
2019-03-24T01:56:08.295Z,23.27
2019-03-24T01:56:42.877Z,23.73
2019-03-24T01:57:17.453Z,27.07
2019-03-24T01:57:52.041Z,24.00
2019-03-24T01:58:27.286Z,27.27
2019-03-24T01:59:01.852Z,25.25
2019-03-24T01:59:36.424Z,23.47
2019-03-24T02:00:11.190Z,23.50
2019-03-24T02:00:45.771Z,21.80
2019-03-24T02:01:20.320Z,23.85
2019-03-24T02:01:54.909Z,24.23
2019-03-24T02:02:29.416Z,21.75
2019-03-24T02:03:04.148Z,30.15
2019-03-24T02:03:38.708Z,23.22
2019-03-24T02:04:13.218Z,23.52
2019-03-24T02:04:47.805Z,21.82
2019-03-24T02:05:22.375Z,24.45
2019-03-24T02:05:57.982Z,25.65
2019-03-24T02:06:32.481Z,29.45
2019-03-24T02:07:07.053Z,24.80
2019-03-24T02:07:41.557Z,22.98
2019-03-24T02:08:16.048Z,23.20
2019-03-24T02:08:50.551Z,24.70
2019-03-24T02:09:25.048Z,22.85
2019-03-24T02:09:59.589Z,27.55
2019-03-24T02:10:34.442Z,25.48
2019-03-24T02:11:09.022Z,23.40
2019-03-24T02:11:43.532Z,24.70
2019-03-24T02:12:18.046Z,23.22
2019-03-24T02:12:52.557Z,22.90
2019-03-24T02:13:27.170Z,23.65
2019-03-24T02:14:01.747Z,23.77
2019-03-24T02:14:36.360Z,22.55
2019-03-24T02:15:11.306Z,28.40
2019-03-24T02:15:45.804Z,24.20
2019-03-24T02:16:20.386Z,25.37
2019-03-24T02:16:54.951Z,23.45
2019-03-24T02:17:29.470Z,22.17
2019-03-24T02:18:04.049Z,22.75
2019-03-24T02:18:38.550Z,21.30
2019-03-24T02:19:13.178Z,21.15
2019-03-24T02:19:47.692Z,25.17
2019-03-24T02:20:22.882Z,23.30
2019-03-24T02:20:57.389Z,20.75
2019-03-24T02:21:32.165Z,21.85
2019-03-24T02:22:06.686Z,25.25
2019-03-24T02:22:41.314Z,26.30
2019-03-24T02:23:15.822Z,23.00
2019-03-24T02:23:50.314Z,24.75
2019-03-24T02:24:24.822Z,25.15
2019-03-24T02:24:59.331Z,23.75
2019-03-24T02:25:33.820Z,26.30
2019-03-24T02:26:08.781Z,22.15
2019-03-24T02:26:43.289Z,23.65
2019-03-24T02:27:17.903Z,25.60
2019-03-24T02:27:52.408Z,26.55
2019-03-24T02:28:26.916Z,26.45
2019-03-24T02:29:01.429Z,30.50
2019-03-24T02:29:35.969Z,24.18
2019-03-24T02:30:10.818Z,23.70
2019-03-24T02:30:45.389Z,23.75
2019-03-24T02:31:19.904Z,23.55
2019-03-24T02:31:54.486Z,22.32
2019-03-24T02:32:29.052Z,24.67
2019-03-24T02:33:03.549Z,22.90
2019-03-24T02:33:38.069Z,25.23
2019-03-24T02:34:12.628Z,20.00
2019-03-24T02:34:47.204Z,19.57
2019-03-24T02:35:21.730Z,24.90
2019-03-24T02:35:56.304Z,22.50
2019-03-24T02:36:30.885Z,26.27
2019-03-24T02:37:05.394Z,25.77
2019-03-24T02:37:39.924Z,21.87
2019-03-24T02:38:14.497Z,24.98
2019-03-24T02:38:49.434Z,23.27
2019-03-24T02:39:23.997Z,23.57
2019-03-24T02:39:58.507Z,26.15
2019-03-24T02:40:33.177Z,22.10
2019-03-24T02:41:07.751Z,24.82
2019-03-24T02:41:42.274Z,21.37
2019-03-24T02:42:16.859Z,21.82
2019-03-24T02:42:51.376Z,23.38
2019-03-24T02:43:25.967Z,27.62
2019-03-24T02:44:00.474Z,22.80
2019-03-24T02:44:34.972Z,24.30
2019-03-24T02:45:09.902Z,22.30
2019-03-24T02:45:44.635Z,20.52
2019-03-24T02:46:24.513Z,22.30
2019-03-24T02:46:55.410Z,23.05
2019-03-24T02:47:30.006Z,22.98
2019-03-24T02:48:04.533Z,20.82
2019-03-24T02:48:39.033Z,22.42
2019-03-24T02:49:13.575Z,22.98
2019-03-24T02:49:48.170Z,24.80
2019-03-24T02:50:22.750Z,24.35
2019-03-24T02:50:57.335Z,26.10
2019-03-24T02:51:31.908Z,21.25
2019-03-24T02:52:06.555Z,22.42
2019-03-24T02:52:41.351Z,22.35
2019-03-24T02:53:15.931Z,21.15
2019-03-24T02:53:50.458Z,21.80
2019-03-24T02:54:24.973Z,21.10
2019-03-24T02:54:59.586Z,19.40
2019-03-24T02:55:34.095Z,20.25
2019-03-24T02:56:08.601Z,21.75
2019-03-24T02:56:43.150Z,21.02
2019-03-24T02:57:17.723Z,19.35
2019-03-24T02:57:52.356Z,20.12
2019-03-24T02:58:26.943Z,21.82
2019-03-24T02:59:01.546Z,19.73
2019-03-24T02:59:40.366Z,22.40
2019-03-24T03:00:15.387Z,23.38
2019-03-24T03:00:49.928Z,24.07
2019-03-24T03:01:24.539Z,21.90
2019-03-24T03:01:59.125Z,18.70
2019-03-24T03:02:33.709Z,24.92
2019-03-24T03:03:08.215Z,24.15
2019-03-24T03:03:42.888Z,21.20
2019-03-24T03:04:17.466Z,18.90
2019-03-24T03:04:52.053Z,25.60
2019-03-24T03:05:26.894Z,17.92
2019-03-24T03:06:01.404Z,20.12
2019-03-24T03:06:36.223Z,21.75
2019-03-24T03:07:10.795Z,22.13
2019-03-24T03:07:45.373Z,24.47
2019-03-24T03:08:19.875Z,22.70
2019-03-24T03:08:54.456Z,23.50
2019-03-24T03:09:29.046Z,25.17
2019-03-24T03:10:05.978Z,21.30
2019-03-24T03:10:41.090Z,21.00
2019-03-24T03:11:15.600Z,21.52
2019-03-24T03:11:50.182Z,23.62
2019-03-24T03:12:24.786Z,21.48
2019-03-24T03:12:59.294Z,21.75
2019-03-24T03:13:33.817Z,28.77
2019-03-24T03:14:08.859Z,21.70
2019-03-24T03:14:43.468Z,21.90
2019-03-24T03:15:17.975Z,22.45
2019-03-24T03:15:52.562Z,28.92
2019-03-24T03:16:37.866Z,23.07
2019-03-24T03:17:03.413Z,20.97
2019-03-24T03:17:37.937Z,20.60
2019-03-24T03:18:12.552Z,22.73
2019-03-24T03:18:47.149Z,23.47
2019-03-24T03:19:23.177Z,20.35
2019-03-24T03:19:57.697Z,21.00
2019-03-24T03:20:32.217Z,21.23
2019-03-24T03:21:06.732Z,24.30
2019-03-24T03:21:41.324Z,23.80
2019-03-24T03:22:15.942Z,22.40
2019-03-24T03:22:50.486Z,26.35
2019-03-24T03:23:25.138Z,23.75
2019-03-24T03:23:59.663Z,20.72
2019-03-24T03:24:34.239Z,24.30
2019-03-24T03:25:09.085Z,29.75
2019-03-24T03:25:43.599Z,23.73
2019-03-24T03:26:18.122Z,20.37
2019-03-24T03:26:53.142Z,23.57
2019-03-24T03:27:27.659Z,22.90
2019-03-24T03:28:02.239Z,25.57
2019-03-24T03:28:36.812Z,24.65
2019-03-24T03:29:11.310Z,25.72
2019-03-24T03:29:45.834Z,19.00
2019-03-24T03:30:23.113Z,19.77
2019-03-24T03:30:57.622Z,24.77
2019-03-24T03:31:32.193Z,24.98
2019-03-24T03:32:06.702Z,25.52
2019-03-24T03:32:41.202Z,27.17
2019-03-24T03:33:15.714Z,21.68
2019-03-24T03:33:50.417Z,28.77
2019-03-24T03:34:25.061Z,20.82
2019-03-24T03:34:59.720Z,24.70
2019-03-24T03:35:34.341Z,23.85
2019-03-24T03:36:08.916Z,22.80
2019-03-24T03:36:43.520Z,25.35
2019-03-24T03:37:18.077Z,24.18
2019-03-24T03:37:52.896Z,19.82
2019-03-24T03:38:27.477Z,23.50
2019-03-24T03:39:02.069Z,21.37
2019-03-24T03:39:36.652Z,22.42
2019-03-24T03:40:11.669Z,21.00
2019-03-24T03:40:46.245Z,20.52
2019-03-24T03:41:20.861Z,21.37
2019-03-24T03:41:55.395Z,22.37
2019-03-24T03:42:30.073Z,26.30
2019-03-24T03:43:05.346Z,20.52
2019-03-24T03:43:39.849Z,23.50
2019-03-24T03:44:14.363Z,22.07
2019-03-24T03:44:48.942Z,25.57
2019-03-24T03:45:28.212Z,20.85
2019-03-24T03:46:02.836Z,23.32
2019-03-24T03:46:37.447Z,19.10
2019-03-24T03:47:11.974Z,20.02
2019-03-24T03:47:46.481Z,25.35
2019-03-24T03:48:20.988Z,22.10
2019-03-24T03:48:55.923Z,18.62
2019-03-24T03:49:30.505Z,23.32
2019-03-24T03:50:07.028Z,21.07
2019-03-24T03:50:41.604Z,19.42
2019-03-24T03:51:16.183Z,22.67
2019-03-24T03:51:50.722Z,21.52
2019-03-24T03:52:25.269Z,23.15
2019-03-24T03:52:59.787Z,24.05
2019-03-24T03:53:34.352Z,22.73
2019-03-24T03:54:08.925Z,21.60
2019-03-24T03:54:43.427Z,25.80
2019-03-24T03:55:17.920Z,25.00
2019-03-24T03:55:52.508Z,24.57
2019-03-24T03:56:27.005Z,28.07
2019-03-24T03:57:01.610Z,23.62
2019-03-24T03:57:36.110Z,26.35
2019-03-24T03:58:10.653Z,22.87
2019-03-24T03:58:45.158Z,26.30
2019-03-24T03:59:19.736Z,27.70
2019-03-24T03:59:54.307Z,23.85
2019-03-24T04:00:36.223Z,24.35
2019-03-24T04:01:10.912Z,20.55
2019-03-24T04:01:45.507Z,22.90
2019-03-24T04:02:20.085Z,24.45
2019-03-24T04:02:54.578Z,23.47
2019-03-24T04:03:29.129Z,23.22
2019-03-24T04:04:03.627Z,23.27
2019-03-24T04:04:38.193Z,27.20
2019-03-24T04:05:13.017Z,20.52
2019-03-24T04:05:47.516Z,22.42
2019-03-24T04:06:22.111Z,21.97
2019-03-24T04:06:56.774Z,26.97
2019-03-24T04:07:31.272Z,26.87
2019-03-24T04:08:06.007Z,22.20
2019-03-24T04:08:40.604Z,22.25
2019-03-24T04:09:15.122Z,20.60
2019-03-24T04:09:49.633Z,25.00
2019-03-24T04:10:24.138Z,24.12
2019-03-24T04:10:58.724Z,25.23
2019-03-24T04:11:33.249Z,21.68
2019-03-24T04:12:07.806Z,23.95
2019-03-24T04:12:42.307Z,25.02
2019-03-24T04:13:16.897Z,24.55
2019-03-24T04:13:51.473Z,23.07
2019-03-24T04:14:26.070Z,24.72
2019-03-24T04:15:00.748Z,24.20
2019-03-24T04:15:35.617Z,24.80
2019-03-24T04:16:10.206Z,22.20
2019-03-24T04:16:44.810Z,24.02
2019-03-24T04:17:19.353Z,23.60
2019-03-24T04:17:53.927Z,21.57
2019-03-24T04:18:28.496Z,23.42
2019-03-24T04:19:04.046Z,30.27
2019-03-24T04:19:38.634Z,21.68
2019-03-24T04:20:13.320Z,22.58
2019-03-24T04:20:47.896Z,23.92
2019-03-24T04:21:22.464Z,21.15
2019-03-24T04:21:56.965Z,25.35
2019-03-24T04:22:31.476Z,22.22
2019-03-24T04:23:06.051Z,26.05
2019-03-24T04:23:40.550Z,22.55
2019-03-24T04:24:15.061Z,20.27
2019-03-24T04:24:49.625Z,23.67
2019-03-24T04:25:24.125Z,28.42
2019-03-24T04:25:58.642Z,22.58
2019-03-24T04:26:33.145Z,21.93
2019-03-24T04:27:07.670Z,26.10
2019-03-24T04:27:42.194Z,23.62
2019-03-24T04:28:16.687Z,25.17
2019-03-24T04:28:51.191Z,24.52
2019-03-24T04:29:25.705Z,24.90
2019-03-24T04:30:00.489Z,22.48
2019-03-24T04:30:35.169Z,25.15
2019-03-24T04:31:09.735Z,28.35
2019-03-24T04:31:44.284Z,22.60
2019-03-24T04:32:18.791Z,24.12
2019-03-24T04:32:53.362Z,19.77
2019-03-24T04:33:27.867Z,23.22
2019-03-24T04:34:02.442Z,24.12
2019-03-24T04:34:37.004Z,20.97
2019-03-24T04:35:11.838Z,23.47
2019-03-24T04:35:46.341Z,23.70
2019-03-24T04:36:20.872Z,18.85
2019-03-24T04:36:55.375Z,25.80
2019-03-24T04:37:29.916Z,20.62
2019-03-24T04:38:04.693Z,23.18
2019-03-24T04:38:39.264Z,27.05
2019-03-24T04:39:13.770Z,23.77
2019-03-24T04:39:48.268Z,26.57
2019-03-24T04:40:23.090Z,23.30
2019-03-24T04:40:57.605Z,22.42
2019-03-24T04:41:32.124Z,24.18
2019-03-24T04:42:06.637Z,22.73
2019-03-24T04:42:41.158Z,25.30
2019-03-24T04:43:16.049Z,26.60
2019-03-24T04:43:50.620Z,23.07
2019-03-24T04:44:25.120Z,20.97
2019-03-24T04:44:59.701Z,20.45
2019-03-24T04:45:34.207Z,23.83
2019-03-24T04:46:08.766Z,20.55
2019-03-24T04:46:43.360Z,25.35
2019-03-24T04:47:18.089Z,19.15
2019-03-24T04:47:52.639Z,24.18
2019-03-24T04:48:27.143Z,22.10
2019-03-24T04:49:01.689Z,18.92
2019-03-24T04:49:36.578Z,24.82
2019-03-24T04:50:11.345Z,21.30
2019-03-24T04:50:45.927Z,24.95
2019-03-24T04:51:20.506Z,22.90
2019-03-24T04:51:55.048Z,23.18
2019-03-24T04:52:29.654Z,20.17
2019-03-24T04:53:04.161Z,25.97
2019-03-24T04:53:38.688Z,21.95
2019-03-24T04:54:13.574Z,24.12
2019-03-24T04:54:48.107Z,21.50
2019-03-24T04:55:22.994Z,22.70
2019-03-24T04:55:57.521Z,21.73
2019-03-24T04:56:32.081Z,19.37
2019-03-24T04:57:06.589Z,24.57
2019-03-24T04:57:41.157Z,24.15
2019-03-24T04:58:15.672Z,21.33
2019-03-24T04:58:50.261Z,24.27
2019-03-24T04:59:24.776Z,22.40
2019-03-24T04:59:59.363Z,21.30
2019-03-24T05:00:36.709Z,23.35
2019-03-24T05:01:11.209Z,22.22
2019-03-24T05:01:45.730Z,18.73
2019-03-24T05:02:20.428Z,23.75
2019-03-24T05:02:54.921Z,19.85
2019-03-24T05:03:29.428Z,20.25
2019-03-24T05:04:04.241Z,20.17
2019-03-24T05:04:38.745Z,19.57
2019-03-24T05:05:13.650Z,19.42
2019-03-24T05:05:48.323Z,23.85
2019-03-24T05:06:23.312Z,19.23
2019-03-24T05:06:57.995Z,23.32
2019-03-24T05:07:32.554Z,25.55
2019-03-24T05:08:07.649Z,23.98
2019-03-24T05:08:42.389Z,23.05
2019-03-24T05:09:17.572Z,26.57
2019-03-24T05:09:54.397Z,21.68
2019-03-24T05:10:29.086Z,24.47
2019-03-24T05:11:04.133Z,24.43
2019-03-24T05:11:38.885Z,19.00
2019-03-24T05:12:13.462Z,19.20
2019-03-24T05:12:48.005Z,20.72
2019-03-24T05:13:22.804Z,19.82
2019-03-24T05:13:57.313Z,19.10
2019-03-24T05:14:31.859Z,17.25
2019-03-24T05:15:06.532Z,18.15
2019-03-24T05:15:41.101Z,19.57
2019-03-24T05:16:15.597Z,21.25
2019-03-24T05:16:50.142Z,22.45
2019-03-24T05:17:27.327Z,17.87
2019-03-24T05:18:01.020Z,19.67
2019-03-24T05:18:35.537Z,22.37
2019-03-24T05:19:10.105Z,23.67
2019-03-24T05:19:44.603Z,18.77
2019-03-24T05:20:19.136Z,19.90
2019-03-24T05:20:53.707Z,21.30
2019-03-24T05:21:28.220Z,17.62
2019-03-24T05:22:02.735Z,23.62
2019-03-24T05:22:37.313Z,17.23
2019-03-24T05:23:11.856Z,22.98
2019-03-24T05:23:46.375Z,19.73
2019-03-24T05:24:20.868Z,18.15
2019-03-24T05:24:55.471Z,16.75
2019-03-24T05:25:29.969Z,16.65
2019-03-24T05:26:04.538Z,19.65
2019-03-24T05:26:39.035Z,18.87
2019-03-24T05:27:13.619Z,17.95
2019-03-24T05:27:48.441Z,16.17
2019-03-24T05:28:22.936Z,22.42
2019-03-24T05:29:00.298Z,21.65
2019-03-24T05:29:34.873Z,17.12
2019-03-24T05:30:09.444Z,19.02
2019-03-24T05:30:43.958Z,18.60
2019-03-24T05:31:18.533Z,16.20
2019-03-24T05:31:53.030Z,17.37
2019-03-24T05:32:27.529Z,16.70
2019-03-24T05:33:02.096Z,15.95
2019-03-24T05:33:36.659Z,18.25
2019-03-24T05:34:11.160Z,18.57
2019-03-24T05:34:45.734Z,19.85
2019-03-24T05:35:20.253Z,18.55
2019-03-24T05:35:54.844Z,17.15
2019-03-24T05:36:29.335Z,25.62
2019-03-24T05:37:03.845Z,18.92
2019-03-24T05:37:38.363Z,18.55
2019-03-24T05:38:12.919Z,16.60
2019-03-24T05:38:47.438Z,17.02
2019-03-24T05:39:22.057Z,18.37
2019-03-24T05:39:56.573Z,19.55
2019-03-24T05:40:31.117Z,17.73
2019-03-24T05:41:05.652Z,20.75
2019-03-24T05:41:40.151Z,20.92
2019-03-24T05:42:14.651Z,20.37
2019-03-24T05:42:49.227Z,19.60
2019-03-24T05:43:24.167Z,19.60
2019-03-24T05:43:58.669Z,18.67
2019-03-24T05:44:33.169Z,18.37
2019-03-24T05:45:07.689Z,17.35
2019-03-24T05:45:42.497Z,17.73
2019-03-24T05:46:16.986Z,19.75
2019-03-24T05:46:51.550Z,15.88
2019-03-24T05:47:26.129Z,17.17
2019-03-24T05:48:00.642Z,18.77
2019-03-24T05:48:35.154Z,17.32
2019-03-24T05:49:09.653Z,18.20
2019-03-24T05:49:44.208Z,17.40
2019-03-24T05:50:18.723Z,18.52
2019-03-24T05:50:53.318Z,18.62
2019-03-24T05:51:27.824Z,18.57
2019-03-24T05:52:02.477Z,17.37
2019-03-24T05:52:37.061Z,19.87
2019-03-24T05:53:11.663Z,22.42
2019-03-24T05:53:46.248Z,18.35
2019-03-24T05:54:20.747Z,18.82
2019-03-24T05:54:55.252Z,16.87
2019-03-24T05:55:29.794Z,18.52
2019-03-24T05:56:04.296Z,20.95
2019-03-24T05:56:38.799Z,19.92
2019-03-24T05:57:13.300Z,16.97
2019-03-24T05:57:47.971Z,19.82
2019-03-24T05:58:22.591Z,17.77
2019-03-24T05:58:57.161Z,19.25
2019-03-24T05:59:31.655Z,18.00
2019-03-24T06:00:09.247Z,19.67
2019-03-24T06:00:43.752Z,17.90
2019-03-24T06:01:18.253Z,18.62
2019-03-24T06:01:52.886Z,22.10
2019-03-24T06:02:27.385Z,19.37
2019-03-24T06:03:01.909Z,20.80
2019-03-24T06:03:36.412Z,19.62
2019-03-24T06:04:10.922Z,19.80
2019-03-24T06:04:45.498Z,17.80
2019-03-24T06:05:20.010Z,15.98
2019-03-24T06:05:54.584Z,15.48
2019-03-24T06:06:29.145Z,19.55
2019-03-24T06:07:03.730Z,20.57
2019-03-24T06:07:38.231Z,21.75
2019-03-24T06:08:12.816Z,16.50
2019-03-24T06:08:47.356Z,16.80
2019-03-24T06:09:21.902Z,18.30
2019-03-24T06:09:56.486Z,16.07
2019-03-24T06:10:30.992Z,20.35
2019-03-24T06:11:08.152Z,17.55
2019-03-24T06:11:42.668Z,19.12
2019-03-24T06:12:17.191Z,20.05
2019-03-24T06:12:51.837Z,17.60
2019-03-24T06:13:26.352Z,18.75
2019-03-24T06:14:00.847Z,20.32
2019-03-24T06:14:35.380Z,18.75
2019-03-24T06:15:10.317Z,20.60
2019-03-24T06:15:44.892Z,19.12
2019-03-24T06:16:20.373Z,17.82
2019-03-24T06:16:54.940Z,19.42
2019-03-24T06:17:29.445Z,18.70
2019-03-24T06:18:04.870Z,18.07
2019-03-24T06:18:39.374Z,18.20
2019-03-24T06:19:13.879Z,26.17
2019-03-24T06:19:49.779Z,18.32
2019-03-24T06:20:24.748Z,18.95
2019-03-24T06:20:59.382Z,25.32
2019-03-24T06:21:33.881Z,19.42
2019-03-24T06:22:08.457Z,19.00
2019-03-24T06:22:42.964Z,17.98
2019-03-24T06:23:17.481Z,27.58
2019-03-24T06:23:52.001Z,21.50
2019-03-24T06:24:26.510Z,21.52
2019-03-24T06:25:01.013Z,21.23
2019-03-24T06:25:35.556Z,19.10
2019-03-24T06:26:10.169Z,17.62
2019-03-24T06:26:44.754Z,21.00
2019-03-24T06:27:19.285Z,20.77
2019-03-24T06:27:53.865Z,22.80
2019-03-24T06:28:28.692Z,19.17
2019-03-24T06:29:03.238Z,20.68
2019-03-24T06:29:37.769Z,19.32
2019-03-24T06:30:12.270Z,22.25
2019-03-24T06:30:46.769Z,18.82
2019-03-24T06:31:21.276Z,20.05
2019-03-24T06:31:55.893Z,19.32
2019-03-24T06:32:30.460Z,21.62
2019-03-24T06:33:05.061Z,21.55
2019-03-24T06:33:39.563Z,18.37
2019-03-24T06:34:14.068Z,22.17
2019-03-24T06:34:48.614Z,22.73
2019-03-24T06:35:23.125Z,20.95
2019-03-24T06:35:57.698Z,20.30
2019-03-24T06:36:32.416Z,25.08
2019-03-24T06:37:06.923Z,20.50
2019-03-24T06:37:41.425Z,20.12
2019-03-24T06:38:15.991Z,22.32
2019-03-24T06:38:50.581Z,23.15
2019-03-24T06:39:25.121Z,18.45
2019-03-24T06:39:59.987Z,19.73
2019-03-24T06:40:34.610Z,23.35
2019-03-24T06:41:09.199Z,22.55
2019-03-24T06:41:43.700Z,25.57
2019-03-24T06:42:18.280Z,21.30
2019-03-24T06:42:52.777Z,24.65
2019-03-24T06:43:27.580Z,22.27
2019-03-24T06:44:02.237Z,24.85
2019-03-24T06:44:36.792Z,20.48
2019-03-24T06:45:12.075Z,24.32
2019-03-24T06:45:46.643Z,25.00
2019-03-24T06:46:21.150Z,22.82
2019-03-24T06:46:55.657Z,20.57
2019-03-24T06:47:30.236Z,24.80
2019-03-24T06:48:04.842Z,20.50
2019-03-24T06:48:39.375Z,28.65
2019-03-24T06:49:13.917Z,24.75
2019-03-24T06:49:48.423Z,23.47
2019-03-24T06:50:22.912Z,23.50
2019-03-24T06:50:57.405Z,23.65
2019-03-24T06:51:31.954Z,26.50
2019-03-24T06:52:06.530Z,27.02
2019-03-24T06:52:41.110Z,25.55
2019-03-24T06:53:19.994Z,23.35
2019-03-24T06:53:54.632Z,23.75
2019-03-24T06:54:29.501Z,20.80
2019-03-24T06:55:04.646Z,26.90
2019-03-24T06:55:39.249Z,26.42
2019-03-24T06:56:13.752Z,20.50
2019-03-24T06:56:48.265Z,22.13
2019-03-24T06:57:22.878Z,23.45
2019-03-24T06:57:57.769Z,25.80
2019-03-24T06:58:32.277Z,26.33
2019-03-24T06:59:06.841Z,21.65
2019-03-24T06:59:41.343Z,24.10
2019-03-24T07:00:16.109Z,24.55
2019-03-24T07:00:50.933Z,28.80
2019-03-24T07:01:25.507Z,23.92
2019-03-24T07:02:00.036Z,28.70
2019-03-24T07:02:34.579Z,30.05
2019-03-24T07:03:09.094Z,24.07
2019-03-24T07:03:43.657Z,25.55
2019-03-24T07:04:18.158Z,30.00
2019-03-24T07:04:52.749Z,24.20
2019-03-24T07:05:27.253Z,26.33
2019-03-24T07:06:01.751Z,26.07
2019-03-24T07:06:36.256Z,24.50
2019-03-24T07:07:10.760Z,24.07
2019-03-24T07:07:45.280Z,27.20
2019-03-24T07:08:19.848Z,28.92
2019-03-24T07:08:54.365Z,22.67
2019-03-24T07:09:28.902Z,25.10
2019-03-24T07:10:05.127Z,29.72
2019-03-24T07:10:39.655Z,23.38
2019-03-24T07:11:14.161Z,29.48
2019-03-24T07:11:48.732Z,27.48
2019-03-24T07:12:23.239Z,28.95
2019-03-24T07:12:58.838Z,30.40
2019-03-24T07:13:33.320Z,29.27
2019-03-24T07:14:07.832Z,30.27
2019-03-24T07:14:42.347Z,31.10
2019-03-24T07:15:16.932Z,28.47
2019-03-24T07:15:51.524Z,32.70
2019-03-24T07:16:26.098Z,31.60
2019-03-24T07:17:00.609Z,30.00
2019-03-24T07:17:36.775Z,34.73
2019-03-24T07:18:11.388Z,25.52
2019-03-24T07:18:45.952Z,28.07
2019-03-24T07:19:20.456Z,30.37
2019-03-24T07:19:54.992Z,27.37
2019-03-24T07:20:29.526Z,32.15
2019-03-24T07:21:04.318Z,33.63
2019-03-24T07:21:38.916Z,29.63
2019-03-24T07:22:13.408Z,30.75
2019-03-24T07:22:47.986Z,32.17
2019-03-24T07:23:22.495Z,31.10
2019-03-24T07:23:57.052Z,31.73
2019-03-24T07:24:31.580Z,32.40
2019-03-24T07:25:06.496Z,29.35
2019-03-24T07:25:41.011Z,30.48
2019-03-24T07:26:15.892Z,35.03
2019-03-24T07:26:50.389Z,33.53